Wenden, Arizona
Current Conditions -  °F | °C
As of 5:15 PM on Wednesday 26 Nov 2014 (Local Time) from KBXK Reporting Station
Clear Clear  
Wind Chill: 19°   Ceiling: Unl
Heat Index: 19°   Visibility: 4mi
Dew Point: -2°   Wind: 5mph
Humidity: 24%   Direction: 170°S
Pressure: 30.17"   Gusts: NA
Location:  33.82°N, 113.54°W
Report Text: KBXK 270015Z AUTO 17004KT 4SM CLR 19/M02 A3017 RMK AO1
Loading
Personal Weather Stations






























Interactive Weather Map New forecast layout! Learn more

10-Day Weather Forecast

Advertisements
Track Severe Weather on mobile